Hilbert, WI

5:28 PM CDT on August 30, 2014 (GMT -0500)
High Cliff State Park Area | Change Station
CLOSE
Current Station
Personal Weather Station
Location: Sherwood, WI
Elevation: 786 ft
Nearby Weather Stations

Elev 786 ft 44.18 °N, 88.28 °W | Updated 4 seconds ago

Mostly Cloudy
Mostly Cloudy
72.5 °F
Feels Like 74 °F
N
2.0
Wind Variable Wind from WNW
Gusts 9.0 mph

Today
High -- | Low -- °F
--% Chance of Precip.
Yesterday
High -- | Low -- °F
Precip. -- in
6:13 AM 7:32 PM
Waxing Crescent, 25% visible
Pressure 29.79 in
Visibility 10.0 miles
Clouds Scattered Clouds 2000 ft
Mostly Cloudy 6000 ft
Heat Index 74 °F
Dew Point 64 °F
Humidity 75%
Rainfall 0.25 in
Snow Depth Not available.
UV 2 out of 12
Pollen .20 out of 12
Air Quality Not available.
Flu Activity Not available.
METAR KATW 302145Z 30007KT 10SM SCT020 BKN060 21/18 A2979

More Conditions Fewer Conditions

Pressure 29.79 in
Visibility 10.0 miles
Clouds Scattered Clouds 2000 ft
Mostly Cloudy 6000 ft
Heat Index 74 °F
Dew Point 64 °F
Humidity 75%
Rainfall 0.25 in
Snow Depth Not available.
UV 2 out of 12
Pollen .20 out of 12
Air Quality Not available.
Flu Activity Not available.
METAR KATW 302145Z 30007KT 10SM SCT020 BKN060 21/18 A2979

More Conditions Fewer Conditions

10-Day Weather Forecast

Almanac

Astronomy

Aug. 30, 2014 Rise Set
Actual Time 6:13 AM CDT 7:32 PM CDT
Civil Twilight 5:43 AM CDT 8:02 PM CDT
Nautical Twilight 5:07 AM CDT 8:38 PM CDT
Astronomical Twilight 4:29 AM CDT 9:16 PM CDT
Moon 11:12 AM CDT 9:54 PM CDT
Length of Visible Light 14h 18m
Length of Day
13h 18m
Tomorrow will be 2m 55s shorter.
Waxing Crescent, 25% of the Moon is Illuminated
Today
Waxing Crescent
Sep 2
First Quarter
Sep 8
Full
Sep 15
Last Quarter
Sep 24
New

Today's Extremes

State Highs State Lows

Community

WunderPhotos

Upload Photos

1,748,657 photos uploaded!

WunderBlogs® & News

Nearby

Snow Depth

Station Depth Elevation
No new snow has been reported.

Earthquake Activity

City Distance Mag. Time & Date
No recent earthquake activity has been reported nearby.
Minimum magnitude displayed is 2.5.

Coastal Water Temperatures

Place Temperature
Menominee, MI 71.1 °F

Nearby Weather Stations